sensor_id;sensor_type;location;lat;lon;timestamp;P1;durP1;ratioP1;P2;durP2;ratioP2
12407;SDS011;6268;48.188;17.134;2023-07-02T00:00:09;4.10;;;3.58;;
12407;SDS011;6268;48.188;17.134;2023-07-02T00:03:31;4.13;;;3.83;;
12407;SDS011;6268;48.188;17.134;2023-07-02T00:06:52;3.58;;;3.35;;
12407;SDS011;6268;48.188;17.134;2023-07-02T00:10:13;4.03;;;3.70;;
12407;SDS011;6268;48.188;17.134;2023-07-02T00:13:39;3.72;;;3.42;;
12407;SDS011;6268;48.188;17.134;2023-07-02T00:17:02;3.80;;;3.50;;
12407;SDS011;6268;48.188;17.134;2023-07-02T00:20:24;3.85;;;3.45;;
12407;SDS011;6268;48.188;17.134;2023-07-02T00:23:45;3.80;;;3.50;;
12407;SDS011;6268;48.188;17.134;2023-07-02T00:27:07;3.92;;;3.47;;
12407;SDS011;6268;48.188;17.134;2023-07-02T00:30:28;5.50;;;3.85;;
12407;SDS011;6268;48.188;17.134;2023-07-02T00:33:51;4.65;;;3.50;;
12407;SDS011;6268;48.188;17.134;2023-07-02T00:37:12;3.53;;;3.22;;
12407;SDS011;6268;48.188;17.134;2023-07-02T00:40:34;3.90;;;3.55;;
12407;SDS011;6268;48.188;17.134;2023-07-02T00:43:55;3.67;;;3.47;;
12407;SDS011;6268;48.188;17.134;2023-07-02T00:47:18;3.80;;;3.50;;
12407;SDS011;6268;48.188;17.134;2023-07-02T00:50:41;3.58;;;3.22;;
12407;SDS011;6268;48.188;17.134;2023-07-02T00:54:04;3.47;;;3.28;;
12407;SDS011;6268;48.188;17.134;2023-07-02T00:57:25;4.15;;;3.85;;
12407;SDS011;6268;48.188;17.134;2023-07-02T01:00:47;3.90;;;3.60;;
12407;SDS011;6268;48.188;17.134;2023-07-02T01:04:09;3.80;;;3.55;;
12407;SDS011;6268;48.188;17.134;2023-07-02T01:07:32;3.30;;;3.10;;
12407;SDS011;6268;48.188;17.134;2023-07-02T01:10:53;4.65;;;3.33;;
12407;SDS011;6268;48.188;17.134;2023-07-02T01:14:19;3.75;;;3.45;;
12407;SDS011;6268;48.188;17.134;2023-07-02T01:17:45;4.03;;;3.83;;
12407;SDS011;6268;48.188;17.134;2023-07-02T01:21:08;4.38;;;3.97;;
12407;SDS011;6268;48.188;17.134;2023-07-02T01:24:29;4.70;;;4.10;;
12407;SDS011;6268;48.188;17.134;2023-07-02T01:27:51;3.30;;;3.10;;
12407;SDS011;6268;48.188;17.134;2023-07-02T01:31:14;4.15;;;3.78;;
12407;SDS011;6268;48.188;17.134;2023-07-02T01:34:36;3.90;;;3.70;;
12407;SDS011;6268;48.188;17.134;2023-07-02T01:37:59;3.90;;;3.60;;
12407;SDS011;6268;48.188;17.134;2023-07-02T01:41:20;3.50;;;3.30;;
12407;SDS011;6268;48.188;17.134;2023-07-02T01:44:42;4.65;;;3.58;;
12407;SDS011;6268;48.188;17.134;2023-07-02T01:48:05;3.88;;;3.35;;
12407;SDS011;6268;48.188;17.134;2023-07-02T01:51:26;3.60;;;3.40;;
12407;SDS011;6268;48.188;17.134;2023-07-02T01:54:49;3.63;;;3.33;;
12407;SDS011;6268;48.188;17.134;2023-07-02T01:58:10;3.65;;;3.45;;
12407;SDS011;6268;48.188;17.134;2023-07-02T02:01:31;3.95;;;3.50;;
12407;SDS011;6268;48.188;17.134;2023-07-02T02:04:52;4.32;;;3.95;;
12407;SDS011;6268;48.188;17.134;2023-07-02T02:08:14;4.20;;;3.80;;
12407;SDS011;6268;48.188;17.134;2023-07-02T02:11:38;4.28;;;3.78;;
12407;SDS011;6268;48.188;17.134;2023-07-02T02:15:00;3.90;;;3.60;;
12407;SDS011;6268;48.188;17.134;2023-07-02T02:18:21;4.13;;;3.72;;
12407;SDS011;6268;48.188;17.134;2023-07-02T02:21:43;4.15;;;3.85;;
12407;SDS011;6268;48.188;17.134;2023-07-02T02:25:04;4.55;;;3.30;;
12407;SDS011;6268;48.188;17.134;2023-07-02T02:28:27;4.05;;;3.75;;
12407;SDS011;6268;48.188;17.134;2023-07-02T02:31:48;3.88;;;3.58;;
12407;SDS011;6268;48.188;17.134;2023-07-02T02:35:09;4.05;;;3.63;;
12407;SDS011;6268;48.188;17.134;2023-07-02T02:38:31;3.75;;;3.55;;
12407;SDS011;6268;48.188;17.134;2023-07-02T02:41:52;3.50;;;3.30;;
12407;SDS011;6268;48.188;17.134;2023-07-02T02:45:15;3.90;;;3.60;;
12407;SDS011;6268;48.188;17.134;2023-07-02T02:48:36;4.07;;;3.75;;
12407;SDS011;6268;48.188;17.134;2023-07-02T02:51:57;4.18;;;3.88;;
12407;SDS011;6268;48.188;17.134;2023-07-02T02:55:18;3.72;;;3.53;;
12407;SDS011;6268;48.188;17.134;2023-07-02T02:58:40;4.78;;;3.95;;
12407;SDS011;6268;48.188;17.134;2023-07-02T03:02:03;3.95;;;3.65;;
12407;SDS011;6268;48.188;17.134;2023-07-02T03:05:24;4.00;;;3.70;;
12407;SDS011;6268;48.188;17.134;2023-07-02T03:08:46;3.63;;;3.33;;
12407;SDS011;6268;48.188;17.134;2023-07-02T03:12:07;3.63;;;3.42;;
12407;SDS011;6268;48.188;17.134;2023-07-02T03:15:29;3.97;;;3.70;;
12407;SDS011;6268;48.188;17.134;2023-07-02T03:18:51;3.63;;;3.40;;
12407;SDS011;6268;48.188;17.134;2023-07-02T03:22:13;3.85;;;3.50;;
12407;SDS011;6268;48.188;17.134;2023-07-02T03:25:34;4.18;;;3.85;;
12407;SDS011;6268;48.188;17.134;2023-07-02T03:28:55;3.75;;;3.45;;
12407;SDS011;6268;48.188;17.134;2023-07-02T03:32:17;4.00;;;3.58;;
12407;SDS011;6268;48.188;17.134;2023-07-02T03:35:39;3.67;;;3.38;;
12407;SDS011;6268;48.188;17.134;2023-07-02T03:39:01;3.80;;;3.50;;
12407;SDS011;6268;48.188;17.134;2023-07-02T03:42:22;3.90;;;3.70;;
12407;SDS011;6268;48.188;17.134;2023-07-02T03:45:43;3.38;;;3.17;;
12407;SDS011;6268;48.188;17.134;2023-07-02T03:49:04;3.67;;;3.47;;
12407;SDS011;6268;48.188;17.134;2023-07-02T03:52:27;3.60;;;3.30;;
12407;SDS011;6268;48.188;17.134;2023-07-02T03:55:48;3.63;;;3.40;;
12407;SDS011;6268;48.188;17.134;2023-07-02T03:59:09;4.18;;;3.88;;
12407;SDS011;6268;48.188;17.134;2023-07-02T04:02:32;3.55;;;3.35;;
12407;SDS011;6268;48.188;17.134;2023-07-02T04:05:53;3.60;;;3.30;;
12407;SDS011;6268;48.188;17.134;2023-07-02T04:09:16;3.78;;;3.38;;
12407;SDS011;6268;48.188;17.134;2023-07-02T04:12:37;3.60;;;3.33;;
12407;SDS011;6268;48.188;17.134;2023-07-02T04:15:58;3.88;;;3.03;;
12407;SDS011;6268;48.188;17.134;2023-07-02T04:19:19;3.78;;;3.40;;
12407;SDS011;6268;48.188;17.134;2023-07-02T04:22:41;3.80;;;3.50;;
12407;SDS011;6268;48.188;17.134;2023-07-02T04:26:04;3.67;;;3.35;;
12407;SDS011;6268;48.188;17.134;2023-07-02T04:29:46;3.53;;;3.20;;
12407;SDS011;6268;48.188;17.134;2023-07-02T04:33:08;3.47;;;3.28;;
12407;SDS011;6268;48.188;17.134;2023-07-02T04:36:30;3.38;;;3.10;;
12407;SDS011;6268;48.188;17.134;2023-07-02T04:39:51;3.38;;;3.08;;
12407;SDS011;6268;48.188;17.134;2023-07-02T04:43:14;2.75;;;2.55;;
12407;SDS011;6268;48.188;17.134;2023-07-02T04:46:35;3.42;;;3.22;;
12407;SDS011;6268;48.188;17.134;2023-07-02T04:49:57;3.95;;;3.20;;
12407;SDS011;6268;48.188;17.134;2023-07-02T04:53:18;2.55;;;2.40;;
12407;SDS011;6268;48.188;17.134;2023-07-02T04:56:39;3.03;;;2.83;;
12407;SDS011;6268;48.188;17.134;2023-07-02T05:00:02;3.03;;;2.67;;
12407;SDS011;6268;48.188;17.134;2023-07-02T05:03:24;3.17;;;2.88;;
12407;SDS011;6268;48.188;17.134;2023-07-02T05:06:46;3.03;;;2.80;;
12407;SDS011;6268;48.188;17.134;2023-07-02T05:10:08;2.75;;;2.55;;
12407;SDS011;6268;48.188;17.134;2023-07-02T05:13:30;2.35;;;2.25;;
12407;SDS011;6268;48.188;17.134;2023-07-02T05:16:53;2.63;;;2.42;;
12407;SDS011;6268;48.188;17.134;2023-07-02T05:20:14;2.83;;;2.63;;
12407;SDS011;6268;48.188;17.134;2023-07-02T05:23:35;5.03;;;2.42;;
12407;SDS011;6268;48.188;17.134;2023-07-02T05:26:57;3.35;;;3.10;;
12407;SDS011;6268;48.188;17.134;2023-07-02T05:30:18;2.97;;;2.63;;
12407;SDS011;6268;48.188;17.134;2023-07-02T05:33:41;2.70;;;2.55;;
12407;SDS011;6268;48.188;17.134;2023-07-02T05:37:02;3.13;;;2.92;;
12407;SDS011;6268;48.188;17.134;2023-07-02T05:40:23;5.22;;;2.67;;
12407;SDS011;6268;48.188;17.134;2023-07-02T05:43:46;3.83;;;3.63;;
12407;SDS011;6268;48.188;17.134;2023-07-02T05:47:07;3.92;;;3.60;;
12407;SDS011;6268;48.188;17.134;2023-07-02T05:50:29;2.70;;;2.50;;
12407;SDS011;6268;48.188;17.134;2023-07-02T05:53:51;2.88;;;2.67;;
12407;SDS011;6268;48.188;17.134;2023-07-02T05:57:13;2.60;;;2.40;;
12407;SDS011;6268;48.188;17.134;2023-07-02T06:00:34;3.67;;;3.42;;
12407;SDS011;6268;48.188;17.134;2023-07-02T06:03:55;3.92;;;3.22;;
12407;SDS011;6268;48.188;17.134;2023-07-02T06:07:18;3.03;;;2.70;;
12407;SDS011;6268;48.188;17.134;2023-07-02T06:10:39;3.17;;;2.90;;
12407;SDS011;6268;48.188;17.134;2023-07-02T06:14:01;3.42;;;3.00;;
12407;SDS011;6268;48.188;17.134;2023-07-02T06:17:22;3.17;;;2.97;;
12407;SDS011;6268;48.188;17.134;2023-07-02T06:20:45;3.28;;;3.08;;
12407;SDS011;6268;48.188;17.134;2023-07-02T06:24:08;2.97;;;2.78;;
12407;SDS011;6268;48.188;17.134;2023-07-02T06:27:31;12.68;;;11.38;;
12407;SDS011;6268;48.188;17.134;2023-07-02T06:30:52;4.55;;;4.25;;
12407;SDS011;6268;48.188;17.134;2023-07-02T06:34:13;4.25;;;3.95;;
12407;SDS011;6268;48.188;17.134;2023-07-02T06:37:35;3.78;;;3.42;;
12407;SDS011;6268;48.188;17.134;2023-07-02T06:40:58;3.75;;;3.45;;
12407;SDS011;6268;48.188;17.134;2023-07-02T06:44:19;2.97;;;2.78;;
12407;SDS011;6268;48.188;17.134;2023-07-02T06:47:41;5.85;;;3.58;;
12407;SDS011;6268;48.188;17.134;2023-07-02T06:51:02;3.33;;;3.03;;
12407;SDS011;6268;48.188;17.134;2023-07-02T06:54:23;3.50;;;3.20;;
12407;SDS011;6268;48.188;17.134;2023-07-02T06:57:46;3.72;;;3.42;;
12407;SDS011;6268;48.188;17.134;2023-07-02T07:01:09;2.60;;;2.40;;
12407;SDS011;6268;48.188;17.134;2023-07-02T07:04:31;3.80;;;3.50;;
12407;SDS011;6268;48.188;17.134;2023-07-02T07:07:52;3.40;;;3.20;;
12407;SDS011;6268;48.188;17.134;2023-07-02T07:11:14;3.22;;;2.95;;
12407;SDS011;6268;48.188;17.134;2023-07-02T07:14:36;2.88;;;2.70;;
12407;SDS011;6268;48.188;17.134;2023-07-02T07:17:58;2.88;;;2.67;;
12407;SDS011;6268;48.188;17.134;2023-07-02T07:21:19;3.00;;;2.80;;
12407;SDS011;6268;48.188;17.134;2023-07-02T07:24:41;3.65;;;3.38;;
12407;SDS011;6268;48.188;17.134;2023-07-02T07:28:02;2.97;;;2.78;;
12407;SDS011;6268;48.188;17.134;2023-07-02T07:31:25;3.08;;;2.85;;
12407;SDS011;6268;48.188;17.134;2023-07-02T07:34:48;5.20;;;4.80;;
12407;SDS011;6268;48.188;17.134;2023-07-02T07:38:09;10.48;;;9.48;;
12407;SDS011;6268;48.188;17.134;2023-07-02T07:41:30;5.65;;;5.15;;
12407;SDS011;6268;48.188;17.134;2023-07-02T07:44:51;7.15;;;4.70;;
12407;SDS011;6268;48.188;17.134;2023-07-02T07:48:14;2.92;;;2.72;;
12407;SDS011;6268;48.188;17.134;2023-07-02T07:51:35;3.70;;;3.22;;
12407;SDS011;6268;48.188;17.134;2023-07-02T07:54:57;3.55;;;3.25;;
12407;SDS011;6268;48.188;17.134;2023-07-02T07:58:18;2.65;;;2.45;;
12407;SDS011;6268;48.188;17.134;2023-07-02T08:01:41;3.50;;;3.20;;
12407;SDS011;6268;48.188;17.134;2023-07-02T08:05:04;2.70;;;2.50;;
12407;SDS011;6268;48.188;17.134;2023-07-02T08:08:25;3.72;;;3.13;;
12407;SDS011;6268;48.188;17.134;2023-07-02T08:11:47;4.32;;;2.83;;
12407;SDS011;6268;48.188;17.134;2023-07-02T08:15:08;2.90;;;2.70;;
12407;SDS011;6268;48.188;17.134;2023-07-02T08:18:29;2.40;;;2.28;;
12407;SDS011;6268;48.188;17.134;2023-07-02T08:21:55;3.67;;;3.38;;
12407;SDS011;6268;48.188;17.134;2023-07-02T08:25:18;2.88;;;2.67;;
12407;SDS011;6268;48.188;17.134;2023-07-02T08:28:40;3.00;;;2.70;;
12407;SDS011;6268;48.188;17.134;2023-07-02T08:32:02;2.25;;;2.08;;
12407;SDS011;6268;48.188;17.134;2023-07-02T08:35:24;2.75;;;2.08;;
12407;SDS011;6268;48.188;17.134;2023-07-02T08:38:46;2.33;;;2.22;;
12407;SDS011;6268;48.188;17.134;2023-07-02T08:42:08;2.30;;;2.10;;
12407;SDS011;6268;48.188;17.134;2023-07-02T08:45:29;2.00;;;1.90;;
12407;SDS011;6268;48.188;17.134;2023-07-02T08:48:51;2.83;;;2.70;;
12407;SDS011;6268;48.188;17.134;2023-07-02T08:52:12;5.25;;;4.85;;
12407;SDS011;6268;48.188;17.134;2023-07-02T08:55:35;2.35;;;2.15;;
12407;SDS011;6268;48.188;17.134;2023-07-02T08:58:56;2.35;;;2.20;;
12407;SDS011;6268;48.188;17.134;2023-07-02T09:02:18;2.38;;;1.80;;
12407;SDS011;6268;48.188;17.134;2023-07-02T09:05:53;2.00;;;1.90;;
12407;SDS011;6268;48.188;17.134;2023-07-02T09:09:15;2.17;;;2.00;;
12407;SDS011;6268;48.188;17.134;2023-07-02T09:12:38;1.48;;;1.38;;
12407;SDS011;6268;48.188;17.134;2023-07-02T09:15:59;1.90;;;1.80;;
12407;SDS011;6268;48.188;17.134;2023-07-02T09:19:35;2.55;;;2.30;;
12407;SDS011;6268;48.188;17.134;2023-07-02T09:23:08;2.22;;;1.70;;
12407;SDS011;6268;48.188;17.134;2023-07-02T09:26:41;3.83;;;2.60;;
12407;SDS011;6268;48.188;17.134;2023-07-02T09:30:09;2.00;;;1.60;;
12407;SDS011;6268;48.188;17.134;2023-07-02T09:33:32;2.95;;;1.50;;
12407;SDS011;6268;48.188;17.134;2023-07-02T09:36:54;2.03;;;1.80;;
12407;SDS011;6268;48.188;17.134;2023-07-02T09:40:17;3.30;;;3.00;;
12407;SDS011;6268;48.188;17.134;2023-07-02T09:43:38;1.50;;;1.40;;
12407;SDS011;6268;48.188;17.134;2023-07-02T09:47:03;1.80;;;1.70;;
12407;SDS011;6268;48.188;17.134;2023-07-02T09:50:26;2.20;;;2.00;;
12407;SDS011;6268;48.188;17.134;2023-07-02T09:53:50;1.98;;;1.88;;
12407;SDS011;6268;48.188;17.134;2023-07-02T09:57:12;1.60;;;1.50;;
12407;SDS011;6268;48.188;17.134;2023-07-02T10:00:34;1.23;;;1.23;;
12407;SDS011;6268;48.188;17.134;2023-07-02T10:03:58;1.30;;;1.30;;
12407;SDS011;6268;48.188;17.134;2023-07-02T10:07:31;1.20;;;1.13;;
12407;SDS011;6268;48.188;17.134;2023-07-02T10:11:05;1.48;;;1.27;;
12407;SDS011;6268;48.188;17.134;2023-07-02T10:14:39;1.60;;;1.50;;
12407;SDS011;6268;48.188;17.134;2023-07-02T10:18:04;1.13;;;1.10;;
12407;SDS011;6268;48.188;17.134;2023-07-02T10:21:37;3.95;;;2.05;;
12407;SDS011;6268;48.188;17.134;2023-07-02T10:25:09;1.70;;;1.60;;
12407;SDS011;6268;48.188;17.134;2023-07-02T10:28:42;2.03;;;1.92;;
12407;SDS011;6268;48.188;17.134;2023-07-02T10:32:25;1.77;;;1.67;;
12407;SDS011;6268;48.188;17.134;2023-07-02T10:35:49;1.77;;;1.55;;
12407;SDS011;6268;48.188;17.134;2023-07-02T10:39:10;2.03;;;1.90;;
12407;SDS011;6268;48.188;17.134;2023-07-02T10:42:33;1.92;;;1.83;;
12407;SDS011;6268;48.188;17.134;2023-07-02T10:46:05;2.30;;;2.20;;
12407;SDS011;6268;48.188;17.134;2023-07-02T10:49:30;1.83;;;1.50;;
12407;SDS011;6268;48.188;17.134;2023-07-02T10:52:53;2.25;;;2.03;;
12407;SDS011;6268;48.188;17.134;2023-07-02T10:56:24;2.00;;;1.90;;
12407;SDS011;6268;48.188;17.134;2023-07-02T10:59:47;2.00;;;1.90;;
12407;SDS011;6268;48.188;17.134;2023-07-02T11:03:16;2.13;;;2.03;;
12407;SDS011;6268;48.188;17.134;2023-07-02T11:06:38;1.73;;;1.63;;
12407;SDS011;6268;48.188;17.134;2023-07-02T11:10:00;2.53;;;2.00;;
12407;SDS011;6268;48.188;17.134;2023-07-02T11:13:31;2.83;;;2.70;;
12407;SDS011;6268;48.188;17.134;2023-07-02T11:16:59;2.47;;;2.28;;
12407;SDS011;6268;48.188;17.134;2023-07-02T11:20:22;2.40;;;2.30;;
12407;SDS011;6268;48.188;17.134;2023-07-02T11:24:00;2.20;;;2.10;;
12407;SDS011;6268;48.188;17.134;2023-07-02T11:27:23;3.03;;;2.35;;
12407;SDS011;6268;48.188;17.134;2023-07-02T11:30:45;2.45;;;2.25;;
12407;SDS011;6268;48.188;17.134;2023-07-02T11:34:11;2.50;;;2.00;;
12407;SDS011;6268;48.188;17.134;2023-07-02T11:37:32;2.20;;;2.05;;
12407;SDS011;6268;48.188;17.134;2023-07-02T11:40:54;2.17;;;2.08;;
12407;SDS011;6268;48.188;17.134;2023-07-02T11:44:18;2.30;;;2.10;;
12407;SDS011;6268;48.188;17.134;2023-07-02T11:47:39;2.17;;;2.08;;
12407;SDS011;6268;48.188;17.134;2023-07-02T11:51:01;2.17;;;2.08;;
12407;SDS011;6268;48.188;17.134;2023-07-02T11:54:22;2.33;;;2.20;;
12407;SDS011;6268;48.188;17.134;2023-07-02T11:57:43;2.33;;;2.22;;
12407;SDS011;6268;48.188;17.134;2023-07-02T12:01:06;2.80;;;2.17;;
12407;SDS011;6268;48.188;17.134;2023-07-02T12:04:27;2.75;;;2.55;;
12407;SDS011;6268;48.188;17.134;2023-07-02T12:07:48;3.42;;;2.92;;
12407;SDS011;6268;48.188;17.134;2023-07-02T12:11:10;2.83;;;2.72;;
12407;SDS011;6268;48.188;17.134;2023-07-02T12:14:32;3.60;;;2.45;;
12407;SDS011;6268;48.188;17.134;2023-07-02T12:17:55;2.92;;;2.58;;
12407;SDS011;6268;48.188;17.134;2023-07-02T12:21:16;3.25;;;2.83;;
12407;SDS011;6268;48.188;17.134;2023-07-02T12:24:37;2.65;;;2.45;;
12407;SDS011;6268;48.188;17.134;2023-07-02T12:27:58;3.20;;;2.90;;
12407;SDS011;6268;48.188;17.134;2023-07-02T12:31:20;3.13;;;2.35;;
12407;SDS011;6268;48.188;17.134;2023-07-02T12:34:42;3.33;;;2.45;;
12407;SDS011;6268;48.188;17.134;2023-07-02T12:38:03;2.55;;;2.35;;
12407;SDS011;6268;48.188;17.134;2023-07-02T12:41:25;2.80;;;2.60;;
12407;SDS011;6268;48.188;17.134;2023-07-02T12:44:46;2.10;;;2.00;;
12407;SDS011;6268;48.188;17.134;2023-07-02T12:48:07;2.40;;;2.17;;
12407;SDS011;6268;48.188;17.134;2023-07-02T12:51:30;2.40;;;2.20;;
12407;SDS011;6268;48.188;17.134;2023-07-02T12:54:51;4.15;;;2.45;;
12407;SDS011;6268;48.188;17.134;2023-07-02T12:58:15;6.30;;;5.78;;
12407;SDS011;6268;48.188;17.134;2023-07-02T13:01:36;6.32;;;5.82;;
12407;SDS011;6268;48.188;17.134;2023-07-02T13:04:57;3.20;;;2.45;;
12407;SDS011;6268;48.188;17.134;2023-07-02T13:08:20;2.28;;;2.08;;
12407;SDS011;6268;48.188;17.134;2023-07-02T13:11:41;2.20;;;2.10;;
12407;SDS011;6268;48.188;17.134;2023-07-02T13:15:03;4.97;;;2.33;;
12407;SDS011;6268;48.188;17.134;2023-07-02T13:18:26;3.45;;;2.53;;
12407;SDS011;6268;48.188;17.134;2023-07-02T13:21:47;2.85;;;2.30;;
12407;SDS011;6268;48.188;17.134;2023-07-02T13:25:10;2.45;;;2.25;;
12407;SDS011;6268;48.188;17.134;2023-07-02T13:28:31;3.38;;;2.53;;
12407;SDS011;6268;48.188;17.134;2023-07-02T13:31:53;3.83;;;2.85;;
12407;SDS011;6268;48.188;17.134;2023-07-02T13:35:14;2.30;;;2.20;;
12407;SDS011;6268;48.188;17.134;2023-07-02T13:38:36;2.40;;;2.20;;
12407;SDS011;6268;48.188;17.134;2023-07-02T13:41:59;3.35;;;2.45;;
12407;SDS011;6268;48.188;17.134;2023-07-02T13:45:20;2.75;;;2.55;;
12407;SDS011;6268;48.188;17.134;2023-07-02T13:48:42;2.45;;;2.25;;
12407;SDS011;6268;48.188;17.134;2023-07-02T13:52:04;1.70;;;1.60;;
12407;SDS011;6268;48.188;17.134;2023-07-02T13:55:25;2.22;;;2.03;;
12407;SDS011;6268;48.188;17.134;2023-07-02T13:58:57;2.75;;;2.10;;
12407;SDS011;6268;48.188;17.134;2023-07-02T14:02:23;3.92;;;2.22;;
12407;SDS011;6268;48.188;17.134;2023-07-02T14:05:45;3.45;;;2.08;;
12407;SDS011;6268;48.188;17.134;2023-07-02T14:09:07;2.15;;;1.77;;
12407;SDS011;6268;48.188;17.134;2023-07-02T14:12:29;2.40;;;1.63;;
12407;SDS011;6268;48.188;17.134;2023-07-02T14:15:52;1.90;;;1.80;;
12407;SDS011;6268;48.188;17.134;2023-07-02T14:19:13;1.98;;;1.73;;
12407;SDS011;6268;48.188;17.134;2023-07-02T14:22:35;1.90;;;1.80;;
12407;SDS011;6268;48.188;17.134;2023-07-02T14:25:57;4.65;;;4.25;;
12407;SDS011;6268;48.188;17.134;2023-07-02T14:29:18;3.03;;;1.83;;
12407;SDS011;6268;48.188;17.134;2023-07-02T14:32:41;2.20;;;2.00;;
12407;SDS011;6268;48.188;17.134;2023-07-02T14:36:04;4.88;;;1.88;;
12407;SDS011;6268;48.188;17.134;2023-07-02T14:39:26;2.78;;;2.17;;
12407;SDS011;6268;48.188;17.134;2023-07-02T14:42:47;1.63;;;1.52;;
12407;SDS011;6268;48.188;17.134;2023-07-02T14:46:08;1.35;;;1.35;;
12407;SDS011;6268;48.188;17.134;2023-07-02T14:49:31;1.52;;;1.27;;
12407;SDS011;6268;48.188;17.134;2023-07-02T14:52:53;1.63;;;1.52;;
12407;SDS011;6268;48.188;17.134;2023-07-02T14:56:14;5.53;;;2.10;;
12407;SDS011;6268;48.188;17.134;2023-07-02T14:59:35;1.55;;;1.50;;
12407;SDS011;6268;48.188;17.134;2023-07-02T15:02:56;1.95;;;1.40;;
12407;SDS011;6268;48.188;17.134;2023-07-02T15:06:20;1.67;;;1.58;;
12407;SDS011;6268;48.188;17.134;2023-07-02T15:09:42;2.25;;;1.35;;
12407;SDS011;6268;48.188;17.134;2023-07-02T15:13:05;2.88;;;1.73;;
12407;SDS011;6268;48.188;17.134;2023-07-02T15:16:27;1.70;;;1.60;;
12407;SDS011;6268;48.188;17.134;2023-07-02T15:19:48;2.58;;;1.63;;
12407;SDS011;6268;48.188;17.134;2023-07-02T15:23:12;3.60;;;1.50;;
12407;SDS011;6268;48.188;17.134;2023-07-02T15:26:36;1.73;;;1.63;;
12407;SDS011;6268;48.188;17.134;2023-07-02T15:29:57;1.50;;;1.38;;
12407;SDS011;6268;48.188;17.134;2023-07-02T15:33:19;2.20;;;1.67;;
12407;SDS011;6268;48.188;17.134;2023-07-02T15:36:45;2.83;;;1.80;;
12407;SDS011;6268;48.188;17.134;2023-07-02T15:40:10;2.13;;;1.98;;
12407;SDS011;6268;48.188;17.134;2023-07-02T15:43:33;1.60;;;1.50;;
12407;SDS011;6268;48.188;17.134;2023-07-02T15:46:54;2.45;;;1.80;;
12407;SDS011;6268;48.188;17.134;2023-07-02T15:50:15;5.85;;;1.85;;
12407;SDS011;6268;48.188;17.134;2023-07-02T15:53:39;2.30;;;1.77;;
12407;SDS011;6268;48.188;17.134;2023-07-02T15:57:03;1.67;;;1.58;;
12407;SDS011;6268;48.188;17.134;2023-07-02T16:00:24;2.40;;;1.92;;
12407;SDS011;6268;48.188;17.134;2023-07-02T16:03:46;2.90;;;2.28;;
12407;SDS011;6268;48.188;17.134;2023-07-02T16:07:12;1.95;;;1.85;;
12407;SDS011;6268;48.188;17.134;2023-07-02T16:10:33;2.25;;;1.95;;
12407;SDS011;6268;48.188;17.134;2023-07-02T16:13:57;2.38;;;2.15;;
12407;SDS011;6268;48.188;17.134;2023-07-02T16:17:18;2.60;;;2.40;;
12407;SDS011;6268;48.188;17.134;2023-07-02T16:20:40;2.63;;;2.42;;
12407;SDS011;6268;48.188;17.134;2023-07-02T16:24:04;4.50;;;2.40;;
12407;SDS011;6268;48.188;17.134;2023-07-02T16:27:25;2.50;;;2.30;;
12407;SDS011;6268;48.188;17.134;2023-07-02T16:30:48;2.35;;;2.20;;
12407;SDS011;6268;48.188;17.134;2023-07-02T16:34:11;2.95;;;2.72;;
12407;SDS011;6268;48.188;17.134;2023-07-02T16:37:34;2.40;;;2.30;;
12407;SDS011;6268;48.188;17.134;2023-07-02T16:40:56;2.80;;;2.70;;
12407;SDS011;6268;48.188;17.134;2023-07-02T16:44:18;3.90;;;3.60;;
12407;SDS011;6268;48.188;17.134;2023-07-02T16:47:42;15.85;;;4.20;;
12407;SDS011;6268;48.188;17.134;2023-07-02T16:51:04;2.53;;;2.20;;
12407;SDS011;6268;48.188;17.134;2023-07-02T16:54:26;5.55;;;3.17;;
12407;SDS011;6268;48.188;17.134;2023-07-02T16:57:48;2.83;;;2.63;;
12407;SDS011;6268;48.188;17.134;2023-07-02T17:01:10;3.40;;;2.78;;
12407;SDS011;6268;48.188;17.134;2023-07-02T17:04:34;2.70;;;2.50;;
12407;SDS011;6268;48.188;17.134;2023-07-02T17:08:04;3.42;;;2.45;;
12407;SDS011;6268;48.188;17.134;2023-07-02T17:11:45;2.60;;;2.45;;
12407;SDS011;6268;48.188;17.134;2023-07-02T17:15:09;2.83;;;2.60;;
12407;SDS011;6268;48.188;17.134;2023-07-02T17:18:32;2.53;;;2.33;;
12407;SDS011;6268;48.188;17.134;2023-07-02T17:21:57;3.42;;;3.13;;
12407;SDS011;6268;48.188;17.134;2023-07-02T17:25:19;2.75;;;2.55;;
12407;SDS011;6268;48.188;17.134;2023-07-02T17:28:41;4.57;;;2.67;;
12407;SDS011;6268;48.188;17.134;2023-07-02T17:32:03;2.63;;;2.42;;
12407;SDS011;6268;48.188;17.134;2023-07-02T17:35:27;2.35;;;2.25;;
12407;SDS011;6268;48.188;17.134;2023-07-02T17:38:52;2.67;;;2.47;;
12407;SDS011;6268;48.188;17.134;2023-07-02T17:42:14;3.22;;;2.83;;
12407;SDS011;6268;48.188;17.134;2023-07-02T17:45:37;7.28;;;6.57;;
12407;SDS011;6268;48.188;17.134;2023-07-02T17:48:58;5.43;;;5.03;;
12407;SDS011;6268;48.188;17.134;2023-07-02T17:52:20;3.65;;;3.35;;
12407;SDS011;6268;48.188;17.134;2023-07-02T17:55:47;2.90;;;2.70;;
12407;SDS011;6268;48.188;17.134;2023-07-02T17:59:10;3.17;;;2.90;;
12407;SDS011;6268;48.188;17.134;2023-07-02T18:02:33;3.90;;;3.60;;
12407;SDS011;6268;48.188;17.134;2023-07-02T18:05:54;3.58;;;3.33;;
12407;SDS011;6268;48.188;17.134;2023-07-02T18:09:18;3.80;;;2.80;;
12407;SDS011;6268;48.188;17.134;2023-07-02T18:12:41;3.25;;;2.95;;
12407;SDS011;6268;48.188;17.134;2023-07-02T18:16:03;3.10;;;2.80;;
12407;SDS011;6268;48.188;17.134;2023-07-02T18:19:24;2.88;;;2.65;;
12407;SDS011;6268;48.188;17.134;2023-07-02T18:22:47;5.07;;;3.42;;
12407;SDS011;6268;48.188;17.134;2023-07-02T18:26:09;3.45;;;3.15;;
12407;SDS011;6268;48.188;17.134;2023-07-02T18:29:33;3.45;;;3.15;;
12407;SDS011;6268;48.188;17.134;2023-07-02T18:32:56;3.55;;;3.35;;
12407;SDS011;6268;48.188;17.134;2023-07-02T18:36:17;3.65;;;3.40;;
12407;SDS011;6268;48.188;17.134;2023-07-02T18:39:40;4.72;;;3.35;;
12407;SDS011;6268;48.188;17.134;2023-07-02T18:43:01;3.65;;;3.35;;
12407;SDS011;6268;48.188;17.134;2023-07-02T18:46:25;3.53;;;3.22;;
12407;SDS011;6268;48.188;17.134;2023-07-02T18:49:48;11.93;;;6.38;;
12407;SDS011;6268;48.188;17.134;2023-07-02T18:53:10;3.50;;;3.20;;
12407;SDS011;6268;48.188;17.134;2023-07-02T18:56:31;7.80;;;4.00;;
12407;SDS011;6268;48.188;17.134;2023-07-02T18:59:53;5.68;;;4.00;;
12407;SDS011;6268;48.188;17.134;2023-07-02T19:03:15;3.75;;;3.45;;
12407;SDS011;6268;48.188;17.134;2023-07-02T19:06:37;5.03;;;3.78;;
12407;SDS011;6268;48.188;17.134;2023-07-02T19:09:59;3.88;;;3.55;;
12407;SDS011;6268;48.188;17.134;2023-07-02T19:13:26;6.20;;;3.42;;
12407;SDS011;6268;48.188;17.134;2023-07-02T19:16:48;3.33;;;3.13;;
12407;SDS011;6268;48.188;17.134;2023-07-02T19:20:12;4.78;;;4.38;;
12407;SDS011;6268;48.188;17.134;2023-07-02T19:23:39;4.45;;;4.05;;
12407;SDS011;6268;48.188;17.134;2023-07-02T19:27:02;4.82;;;4.43;;
12407;SDS011;6268;48.188;17.134;2023-07-02T19:30:27;4.95;;;4.53;;
12407;SDS011;6268;48.188;17.134;2023-07-02T19:33:48;4.30;;;3.90;;
12407;SDS011;6268;48.188;17.134;2023-07-02T19:37:15;4.72;;;3.40;;
12407;SDS011;6268;48.188;17.134;2023-07-02T19:40:37;4.32;;;3.58;;
12407;SDS011;6268;48.188;17.134;2023-07-02T19:43:59;3.97;;;3.65;;
12407;SDS011;6268;48.188;17.134;2023-07-02T19:47:21;4.18;;;3.88;;
12407;SDS011;6268;48.188;17.134;2023-07-02T19:50:44;4.28;;;3.85;;
12407;SDS011;6268;48.188;17.134;2023-07-02T19:54:08;4.95;;;4.35;;
12407;SDS011;6268;48.188;17.134;2023-07-02T19:57:32;4.90;;;4.50;;
12407;SDS011;6268;48.188;17.134;2023-07-02T20:00:53;4.53;;;4.15;;
12407;SDS011;6268;48.188;17.134;2023-07-02T20:04:18;4.05;;;3.65;;
12407;SDS011;6268;48.188;17.134;2023-07-02T20:07:40;5.03;;;4.32;;
12407;SDS011;6268;48.188;17.134;2023-07-02T20:11:03;4.25;;;3.88;;
12407;SDS011;6268;48.188;17.134;2023-07-02T20:14:25;5.03;;;3.90;;
12407;SDS011;6268;48.188;17.134;2023-07-02T20:17:46;4.95;;;4.50;;
12407;SDS011;6268;48.188;17.134;2023-07-02T20:21:08;4.50;;;4.10;;